sensor_id;sensor_type;location;lat;lon;timestamp;pressure;altitude;pressure_sealevel;temperature;humidity
73245;BME280;61460;41.158;-73.238;2023-04-01T00:00:29;101445.94;;;23.44;35.26
73245;BME280;61460;41.158;-73.238;2023-04-01T00:02:59;101443.71;;;23.42;35.43
73245;BME280;61460;41.158;-73.238;2023-04-01T00:05:30;101445.11;;;23.38;35.30
73245;BME280;61460;41.158;-73.238;2023-04-01T00:08:00;101455.46;;;23.31;35.71
73245;BME280;61460;41.158;-73.238;2023-04-01T00:10:31;101459.48;;;23.27;35.96
73245;BME280;61460;41.158;-73.238;2023-04-01T00:13:02;101461.34;;;23.29;36.12
73245;BME280;61460;41.158;-73.238;2023-04-01T00:15:32;101468.96;;;23.26;36.01
73245;BME280;61460;41.158;-73.238;2023-04-01T00:18:03;101458.83;;;22.69;37.35
73245;BME280;61460;41.158;-73.238;2023-04-01T00:20:33;101451.30;;;22.32;38.26
73245;BME280;61460;41.158;-73.238;2023-04-01T00:23:04;101449.38;;;22.98;36.52
73245;BME280;61460;41.158;-73.238;2023-04-01T00:25:35;101446.75;;;23.18;36.65
73245;BME280;61460;41.158;-73.238;2023-04-01T00:28:05;101441.99;;;23.40;36.12
73245;BME280;61460;41.158;-73.238;2023-04-01T00:30:36;101431.92;;;23.39;35.96
73245;BME280;61460;41.158;-73.238;2023-04-01T00:33:07;101435.66;;;23.51;35.90
73245;BME280;61460;41.158;-73.238;2023-04-01T00:35:38;101432.44;;;23.54;35.81
73245;BME280;61460;41.158;-73.238;2023-04-01T00:38:08;101430.61;;;23.56;35.87
73245;BME280;61460;41.158;-73.238;2023-04-01T00:40:41;101436.01;;;23.57;35.89
73245;BME280;61460;41.158;-73.238;2023-04-01T00:43:12;101441.15;;;23.59;35.73
73245;BME280;61460;41.158;-73.238;2023-04-01T00:45:42;101437.82;;;23.56;35.91
73245;BME280;61460;41.158;-73.238;2023-04-01T00:48:14;101435.65;;;23.54;35.92
73245;BME280;61460;41.158;-73.238;2023-04-01T00:50:44;101433.23;;;22.58;37.73
73245;BME280;61460;41.158;-73.238;2023-04-01T00:53:12;101433.11;;;22.84;37.22
73245;BME280;61460;41.158;-73.238;2023-04-01T00:55:47;101433.72;;;23.23;37.20
73245;BME280;61460;41.158;-73.238;2023-04-01T00:58:16;101427.63;;;23.37;36.39
73245;BME280;61460;41.158;-73.238;2023-04-01T01:00:46;101421.13;;;23.49;35.91
73245;BME280;61460;41.158;-73.238;2023-04-01T01:03:14;101428.54;;;23.59;35.73
73245;BME280;61460;41.158;-73.238;2023-04-01T01:05:58;101424.79;;;23.63;35.71
73245;BME280;61460;41.158;-73.238;2023-04-01T01:08:23;101430.92;;;23.62;35.95
73245;BME280;61460;41.158;-73.238;2023-04-01T01:10:49;101422.68;;;23.64;36.02
73245;BME280;61460;41.158;-73.238;2023-04-01T01:13:21;101415.80;;;23.65;36.09
73245;BME280;61460;41.158;-73.238;2023-04-01T01:15:50;101423.61;;;23.58;36.08
73245;BME280;61460;41.158;-73.238;2023-04-01T01:18:23;101424.17;;;23.65;36.34
73245;BME280;61460;41.158;-73.238;2023-04-01T01:20:57;101419.39;;;23.59;36.30
73245;BME280;61460;41.158;-73.238;2023-04-01T01:23:32;101418.19;;;22.39;38.41
73245;BME280;61460;41.158;-73.238;2023-04-01T01:25:58;101414.77;;;23.05;36.93
73245;BME280;61460;41.158;-73.238;2023-04-01T01:28:30;101414.84;;;23.32;37.69
73245;BME280;61460;41.158;-73.238;2023-04-01T01:30:55;101413.08;;;23.32;37.52
73245;BME280;61460;41.158;-73.238;2023-04-01T01:35:54;101404.84;;;23.43;37.33
73245;BME280;61460;41.158;-73.238;2023-04-01T01:38:26;101400.02;;;23.50;37.13
73245;BME280;61460;41.158;-73.238;2023-04-01T01:40:56;101388.82;;;23.59;37.30
73245;BME280;61460;41.158;-73.238;2023-04-01T01:43:28;101375.04;;;23.56;36.82
73245;BME280;61460;41.158;-73.238;2023-04-01T01:45:58;101356.45;;;23.53;37.06
73245;BME280;61460;41.158;-73.238;2023-04-01T01:48:27;101362.71;;;23.43;37.09
73245;BME280;61460;41.158;-73.238;2023-04-01T01:50:57;101366.84;;;23.44;37.32
73245;BME280;61460;41.158;-73.238;2023-04-01T01:53:27;101361.92;;;23.46;36.86
73245;BME280;61460;41.158;-73.238;2023-04-01T01:55:58;101354.61;;;23.41;37.06
73245;BME280;61460;41.158;-73.238;2023-04-01T01:58:31;101351.82;;;23.36;37.20
73245;BME280;61460;41.158;-73.238;2023-04-01T02:01:02;101349.94;;;23.31;37.40
73245;BME280;61460;41.158;-73.238;2023-04-01T02:03:33;101346.01;;;23.33;37.43
73245;BME280;61460;41.158;-73.238;2023-04-01T02:06:02;101333.64;;;22.99;38.02
73245;BME280;61460;41.158;-73.238;2023-04-01T02:08:35;101342.02;;;23.16;37.42
73245;BME280;61460;41.158;-73.238;2023-04-01T02:11:04;101355.77;;;23.27;37.36
73245;BME280;61460;41.158;-73.238;2023-04-01T02:13:37;101350.36;;;23.35;37.19
73245;BME280;61460;41.158;-73.238;2023-04-01T02:16:08;101343.65;;;23.38;37.18
73245;BME280;61460;41.158;-73.238;2023-04-01T02:18:35;101340.41;;;23.41;37.16
73245;BME280;61460;41.158;-73.238;2023-04-01T02:21:05;101333.33;;;23.42;37.07
73245;BME280;61460;41.158;-73.238;2023-04-01T02:23:36;101330.76;;;23.46;37.26
73245;BME280;61460;41.158;-73.238;2023-04-01T02:26:07;101330.02;;;23.39;37.46
73245;BME280;61460;41.158;-73.238;2023-04-01T02:28:38;101326.80;;;23.43;37.47
73245;BME280;61460;41.158;-73.238;2023-04-01T02:31:08;101321.07;;;23.41;37.39
73245;BME280;61460;41.158;-73.238;2023-04-01T02:33:39;101315.31;;;23.30;37.72
73245;BME280;61460;41.158;-73.238;2023-04-01T02:36:11;101304.82;;;23.35;37.68
73245;BME280;61460;41.158;-73.238;2023-04-01T02:38:39;101295.45;;;23.27;37.64
73245;BME280;61460;41.158;-73.238;2023-04-01T02:41:10;101296.07;;;23.23;37.87
73245;BME280;61460;41.158;-73.238;2023-04-01T02:43:40;101281.06;;;23.27;37.68
73245;BME280;61460;41.158;-73.238;2023-04-01T02:46:11;101277.79;;;23.18;37.57
73245;BME280;61460;41.158;-73.238;2023-04-01T02:48:42;101272.85;;;23.17;37.57
73245;BME280;61460;41.158;-73.238;2023-04-01T02:51:12;101276.89;;;23.32;37.24
73245;BME280;61460;41.158;-73.238;2023-04-01T02:53:43;101272.39;;;23.46;37.09
73245;BME280;61460;41.158;-73.238;2023-04-01T02:56:14;101268.24;;;23.46;37.18
73245;BME280;61460;41.158;-73.238;2023-04-01T02:58:44;101255.45;;;23.48;37.05
73245;BME280;61460;41.158;-73.238;2023-04-01T03:01:15;101252.76;;;23.49;37.12
73245;BME280;61460;41.158;-73.238;2023-04-01T03:03:46;101252.65;;;23.46;37.15
73245;BME280;61460;41.158;-73.238;2023-04-01T03:06:17;101240.44;;;23.53;36.98
73245;BME280;61460;41.158;-73.238;2023-04-01T03:08:47;101233.35;;;23.51;37.05
73245;BME280;61460;41.158;-73.238;2023-04-01T03:11:18;101232.40;;;23.51;37.10
73245;BME280;61460;41.158;-73.238;2023-04-01T03:13:48;101227.63;;;23.36;37.28
73245;BME280;61460;41.158;-73.238;2023-04-01T03:16:19;101239.10;;;23.23;37.54
73245;BME280;61460;41.158;-73.238;2023-04-01T03:18:50;101236.17;;;23.17;37.65
73245;BME280;61460;41.158;-73.238;2023-04-01T03:21:21;101229.50;;;23.30;37.37
73245;BME280;61460;41.158;-73.238;2023-04-01T03:23:51;101218.22;;;23.09;37.82
73245;BME280;61460;41.158;-73.238;2023-04-01T03:26:21;101220.66;;;23.27;36.99
73245;BME280;61460;41.158;-73.238;2023-04-01T03:28:52;101204.35;;;23.22;37.20
73245;BME280;61460;41.158;-73.238;2023-04-01T03:31:23;101211.83;;;23.42;36.92
73245;BME280;61460;41.158;-73.238;2023-04-01T03:33:53;101220.70;;;23.49;36.93
73245;BME280;61460;41.158;-73.238;2023-04-01T03:36:24;101220.21;;;23.44;36.92
73245;BME280;61460;41.158;-73.238;2023-04-01T03:38:55;101217.73;;;23.39;37.05
73245;BME280;61460;41.158;-73.238;2023-04-01T03:41:25;101217.30;;;23.40;37.12
73245;BME280;61460;41.158;-73.238;2023-04-01T03:43:56;101226.40;;;23.38;37.15
73245;BME280;61460;41.158;-73.238;2023-04-01T03:46:27;101225.77;;;23.36;37.13
73245;BME280;61460;41.158;-73.238;2023-04-01T03:48:57;101212.52;;;23.27;37.22
73245;BME280;61460;41.158;-73.238;2023-04-01T03:51:28;101224.30;;;22.32;39.12
73245;BME280;61460;41.158;-73.238;2023-04-01T03:53:59;101206.06;;;22.94;37.75
73245;BME280;61460;41.158;-73.238;2023-04-01T03:56:29;101203.05;;;23.22;37.81
73245;BME280;61460;41.158;-73.238;2023-04-01T03:59:03;101209.42;;;23.32;37.32
73245;BME280;61460;41.158;-73.238;2023-04-01T04:01:31;101214.66;;;23.39;36.93
73245;BME280;61460;41.158;-73.238;2023-04-01T04:04:01;101227.40;;;23.37;37.06
73245;BME280;61460;41.158;-73.238;2023-04-01T04:06:32;101213.38;;;23.51;36.71
73245;BME280;61460;41.158;-73.238;2023-04-01T04:09:03;101207.03;;;23.49;36.90
73245;BME280;61460;41.158;-73.238;2023-04-01T04:11:33;101210.57;;;23.50;37.05
73245;BME280;61460;41.158;-73.238;2023-04-01T04:14:04;101195.10;;;23.40;37.08
73245;BME280;61460;41.158;-73.238;2023-04-01T04:16:35;101188.29;;;23.15;37.72
73245;BME280;61460;41.158;-73.238;2023-04-01T04:19:05;101187.34;;;22.42;39.10
73245;BME280;61460;41.158;-73.238;2023-04-01T04:21:36;101172.30;;;23.07;37.52
73245;BME280;61460;41.158;-73.238;2023-04-01T04:24:07;101176.29;;;23.22;38.11
73245;BME280;61460;41.158;-73.238;2023-04-01T04:26:37;101174.03;;;23.25;37.71
73245;BME280;61460;41.158;-73.238;2023-04-01T04:29:08;101177.67;;;23.35;37.36
73245;BME280;61460;41.158;-73.238;2023-04-01T04:31:38;101164.93;;;23.46;37.47
73245;BME280;61460;41.158;-73.238;2023-04-01T04:34:09;101159.09;;;23.54;37.57
73245;BME280;61460;41.158;-73.238;2023-04-01T04:36:40;101152.39;;;23.52;38.16
73245;BME280;61460;41.158;-73.238;2023-04-01T04:39:10;101155.38;;;23.51;38.42
73245;BME280;61460;41.158;-73.238;2023-04-01T04:41:41;101150.04;;;23.49;38.12
73245;BME280;61460;41.158;-73.238;2023-04-01T04:44:12;101143.19;;;23.58;38.01
73245;BME280;61460;41.158;-73.238;2023-04-01T04:46:42;101142.83;;;23.65;38.05
73245;BME280;61460;41.158;-73.238;2023-04-01T04:49:13;101133.47;;;23.53;38.08
73245;BME280;61460;41.158;-73.238;2023-04-01T04:51:44;101136.35;;;23.68;37.90
73245;BME280;61460;41.158;-73.238;2023-04-01T04:54:14;101138.09;;;23.56;37.93
73245;BME280;61460;41.158;-73.238;2023-04-01T04:56:45;101127.83;;;23.49;38.10
73245;BME280;61460;41.158;-73.238;2023-04-01T04:59:16;101122.11;;;23.48;38.21
73245;BME280;61460;41.158;-73.238;2023-04-01T05:01:46;101119.75;;;23.22;38.35
73245;BME280;61460;41.158;-73.238;2023-04-01T05:04:17;101116.19;;;23.34;37.60
73245;BME280;61460;41.158;-73.238;2023-04-01T05:06:48;101122.52;;;23.32;37.94
73245;BME280;61460;41.158;-73.238;2023-04-01T05:09:18;101123.87;;;23.41;37.64
73245;BME280;61460;41.158;-73.238;2023-04-01T05:11:49;101110.11;;;23.47;37.65
73245;BME280;61460;41.158;-73.238;2023-04-01T05:14:20;101101.86;;;23.47;37.52
73245;BME280;61460;41.158;-73.238;2023-04-01T05:16:50;101094.59;;;23.37;37.67
73245;BME280;61460;41.158;-73.238;2023-04-01T05:19:21;101093.74;;;23.41;37.76
73245;BME280;61460;41.158;-73.238;2023-04-01T05:21:52;101087.25;;;23.48;37.52
73245;BME280;61460;41.158;-73.238;2023-04-01T05:24:22;101070.50;;;23.34;37.69
73245;BME280;61460;41.158;-73.238;2023-04-01T05:26:53;101064.09;;;23.30;37.75
73245;BME280;61460;41.158;-73.238;2023-04-01T05:29:24;101044.84;;;23.33;37.82
73245;BME280;61460;41.158;-73.238;2023-04-01T05:31:54;101029.01;;;23.08;38.07
73245;BME280;61460;41.158;-73.238;2023-04-01T05:34:25;101022.92;;;22.91;38.57
73245;BME280;61460;41.158;-73.238;2023-04-01T05:36:55;101020.86;;;23.10;37.77
73245;BME280;61460;41.158;-73.238;2023-04-01T05:39:26;101016.94;;;23.33;37.99
73245;BME280;61460;41.158;-73.238;2023-04-01T05:41:57;101015.31;;;23.36;37.71
73245;BME280;61460;41.158;-73.238;2023-04-01T05:44:27;101009.03;;;23.34;37.75
73245;BME280;61460;41.158;-73.238;2023-04-01T05:46:58;100997.71;;;23.37;37.54
73245;BME280;61460;41.158;-73.238;2023-04-01T05:49:29;100994.72;;;23.45;37.43
73245;BME280;61460;41.158;-73.238;2023-04-01T05:51:59;100991.95;;;23.46;37.36
73245;BME280;61460;41.158;-73.238;2023-04-01T05:54:30;100982.96;;;23.46;37.38
73245;BME280;61460;41.158;-73.238;2023-04-01T05:57:01;100974.45;;;23.46;37.45
73245;BME280;61460;41.158;-73.238;2023-04-01T05:59:31;100972.59;;;23.51;37.23
73245;BME280;61460;41.158;-73.238;2023-04-01T06:02:02;100957.99;;;23.16;37.48
73245;BME280;61460;41.158;-73.238;2023-04-01T06:04:38;100954.04;;;23.32;37.01
73245;BME280;61460;41.158;-73.238;2023-04-01T06:07:10;100949.30;;;23.37;37.12
73245;BME280;61460;41.158;-73.238;2023-04-01T06:09:34;100945.34;;;23.45;37.20
73245;BME280;61460;41.158;-73.238;2023-04-01T06:12:16;100938.35;;;23.45;37.15
73245;BME280;61460;41.158;-73.238;2023-04-01T06:14:42;100922.71;;;23.51;36.98
73245;BME280;61460;41.158;-73.238;2023-04-01T06:17:16;100913.25;;;23.49;37.25
73245;BME280;61460;41.158;-73.238;2023-04-01T06:19:43;100910.62;;;23.45;37.87
73245;BME280;61460;41.158;-73.238;2023-04-01T06:24:49;100904.87;;;23.53;37.78
73245;BME280;61460;41.158;-73.238;2023-04-01T06:27:17;100904.75;;;23.45;37.53
73245;BME280;61460;41.158;-73.238;2023-04-01T06:29:46;100899.94;;;23.19;37.54
73245;BME280;61460;41.158;-73.238;2023-04-01T06:32:24;100892.61;;;23.30;37.31
73245;BME280;61460;41.158;-73.238;2023-04-01T06:34:49;100883.32;;;23.41;37.24
73245;BME280;61460;41.158;-73.238;2023-04-01T06:37:22;100895.64;;;23.36;37.51
73245;BME280;61460;41.158;-73.238;2023-04-01T06:39:52;100898.65;;;23.27;37.73
73245;BME280;61460;41.158;-73.238;2023-04-01T06:42:23;100903.05;;;23.34;37.56
73245;BME280;61460;41.158;-73.238;2023-04-01T06:44:51;100904.63;;;23.30;37.64
73245;BME280;61460;41.158;-73.238;2023-04-01T06:47:25;100886.76;;;23.21;37.61
73245;BME280;61460;41.158;-73.238;2023-04-01T06:49:49;100872.41;;;23.33;37.59
73245;BME280;61460;41.158;-73.238;2023-04-01T06:52:21;100862.18;;;23.37;37.42
73245;BME280;61460;41.158;-73.238;2023-04-01T06:54:49;100850.50;;;23.05;37.77
73245;BME280;61460;41.158;-73.238;2023-04-01T06:57:23;100822.84;;;23.13;37.45
73245;BME280;61460;41.158;-73.238;2023-04-01T06:59:47;100821.86;;;22.79;38.30
73245;BME280;61460;41.158;-73.238;2023-04-01T07:02:25;100812.78;;;23.28;37.24
73245;BME280;61460;41.158;-73.238;2023-04-01T07:04:51;100805.26;;;23.39;37.27
73245;BME280;61460;41.158;-73.238;2023-04-01T07:07:27;100792.95;;;23.45;37.52
73245;BME280;61460;41.158;-73.238;2023-04-01T07:09:53;100788.54;;;23.48;37.46
73245;BME280;61460;41.158;-73.238;2023-04-01T07:12:28;100785.03;;;23.54;37.16
73245;BME280;61460;41.158;-73.238;2023-04-01T07:14:52;100776.01;;;23.53;37.13
73245;BME280;61460;41.158;-73.238;2023-04-01T07:17:25;100780.83;;;23.55;37.09
73245;BME280;61460;41.158;-73.238;2023-04-01T07:19:58;100781.48;;;23.54;37.16
73245;BME280;61460;41.158;-73.238;2023-04-01T07:22:29;100775.37;;;23.59;37.15
73245;BME280;61460;41.158;-73.238;2023-04-01T07:24:54;100766.72;;;23.58;36.92
73245;BME280;61460;41.158;-73.238;2023-04-01T07:27:24;100762.95;;;23.28;37.23
73245;BME280;61460;41.158;-73.238;2023-04-01T07:29:56;100753.40;;;23.37;37.19
73245;BME280;61460;41.158;-73.238;2023-04-01T07:32:33;100743.49;;;23.48;36.97
73245;BME280;61460;41.158;-73.238;2023-04-01T07:35:07;100737.07;;;23.52;37.01
73245;BME280;61460;41.158;-73.238;2023-04-01T07:37:31;100714.21;;;23.58;37.02
73245;BME280;61460;41.158;-73.238;2023-04-01T07:40:07;100703.76;;;23.61;37.03
73245;BME280;61460;41.158;-73.238;2023-04-01T07:42:35;100701.36;;;23.59;37.17
73245;BME280;61460;41.158;-73.238;2023-04-01T07:45:04;100700.37;;;23.57;37.22
73245;BME280;61460;41.158;-73.238;2023-04-01T07:47:37;100696.47;;;23.55;37.26
73245;BME280;61460;41.158;-73.238;2023-04-01T07:50:10;100701.12;;;23.52;37.23
73245;BME280;61460;41.158;-73.238;2023-04-01T07:52:36;100696.68;;;23.26;37.30
73245;BME280;61460;41.158;-73.238;2023-04-01T07:55:06;100693.62;;;23.36;36.96
73245;BME280;61460;41.158;-73.238;2023-04-01T07:57:38;100695.18;;;23.41;36.91
73245;BME280;61460;41.158;-73.238;2023-04-01T08:00:07;100689.61;;;23.48;36.88
73245;BME280;61460;41.158;-73.238;2023-04-01T08:02:44;100706.90;;;23.57;36.79
73245;BME280;61460;41.158;-73.238;2023-04-01T08:05:14;100712.42;;;23.56;37.07
73245;BME280;61460;41.158;-73.238;2023-04-01T08:07:43;100704.10;;;23.55;37.22
73245;BME280;61460;41.158;-73.238;2023-04-01T08:10:11;100700.49;;;23.59;37.15
73245;BME280;61460;41.158;-73.238;2023-04-01T08:12:43;100697.90;;;23.51;37.28
73245;BME280;61460;41.158;-73.238;2023-04-01T08:15:13;100697.22;;;23.57;37.67
73245;BME280;61460;41.158;-73.238;2023-04-01T08:17:42;100683.11;;;23.44;37.22
73245;BME280;61460;41.158;-73.238;2023-04-01T08:20:17;100678.08;;;23.13;37.46
73245;BME280;61460;41.158;-73.238;2023-04-01T08:22:42;100671.95;;;23.28;37.24
73245;BME280;61460;41.158;-73.238;2023-04-01T08:25:16;100663.93;;;23.35;37.17
73245;BME280;61460;41.158;-73.238;2023-04-01T08:27:44;100649.99;;;23.32;37.15
73245;BME280;61460;41.158;-73.238;2023-04-01T08:30:18;100646.20;;;23.45;37.12
73245;BME280;61460;41.158;-73.238;2023-04-01T08:32:44;100641.50;;;23.47;37.07
73245;BME280;61460;41.158;-73.238;2023-04-01T08:35:20;100639.59;;;23.49;37.22
73245;BME280;61460;41.158;-73.238;2023-04-01T08:37:43;100640.03;;;23.47;37.27
73245;BME280;61460;41.158;-73.238;2023-04-01T08:42:55;100626.57;;;23.53;37.20
73245;BME280;61460;41.158;-73.238;2023-04-01T08:45:22;100621.84;;;23.26;37.81
73245;BME280;61460;41.158;-73.238;2023-04-01T08:47:54;100608.40;;;23.29;37.47
73245;BME280;61460;41.158;-73.238;2023-04-01T08:50:24;100582.25;;;23.33;37.72
73245;BME280;61460;41.158;-73.238;2023-04-01T08:52:51;100553.76;;;23.41;37.62
73245;BME280;61460;41.158;-73.238;2023-04-01T08:55:25;100528.56;;;23.45;37.23
73245;BME280;61460;41.158;-73.238;2023-04-01T08:57:58;100557.31;;;23.46;37.48
73245;BME280;61460;41.158;-73.238;2023-04-01T09:00:27;100536.51;;;23.50;37.56
73245;BME280;61460;41.158;-73.238;2023-04-01T09:07:56;100525.43;;;23.31;37.86
73245;BME280;61460;41.158;-73.238;2023-04-01T09:15:36;100502.59;;;22.67;38.72
73245;BME280;61460;41.158;-73.238;2023-04-01T09:20:37;100478.02;;;23.30;37.93
73245;BME280;61460;41.158;-73.238;2023-04-01T09:25:35;100454.08;;;23.38;37.43
73245;BME280;61460;41.158;-73.238;2023-04-01T09:27:57;100448.54;;;23.43;37.17
73245;BME280;61460;41.158;-73.238;2023-04-01T09:30:33;100445.98;;;23.48;37.27
73245;BME280;61460;41.158;-73.238;2023-04-01T09:35:38;100441.86;;;23.55;37.18
73245;BME280;61460;41.158;-73.238;2023-04-01T09:38:08;100442.86;;;23.48;37.09
73245;BME280;61460;41.158;-73.238;2023-04-01T09:40:36;100435.46;;;23.18;37.45
73245;BME280;61460;41.158;-73.238;2023-04-01T09:43:11;100442.93;;;23.26;37.98
73245;BME280;61460;41.158;-73.238;2023-04-01T09:45:42;100438.34;;;23.36;37.73
73245;BME280;61460;41.158;-73.238;2023-04-01T09:48:12;100427.84;;;23.44;37.35
73245;BME280;61460;41.158;-73.238;2023-04-01T09:50:36;100422.15;;;23.50;37.55
73245;BME280;61460;41.158;-73.238;2023-04-01T09:53:10;100414.80;;;23.53;37.38
73245;BME280;61460;41.158;-73.238;2023-04-01T10:00:49;100413.35;;;23.49;37.21
73245;BME280;61460;41.158;-73.238;2023-04-01T10:03:18;100408.38;;;23.47;37.48
73245;BME280;61460;41.158;-73.238;2023-04-01T10:08:14;100394.14;;;23.23;37.39
73245;BME280;61460;41.158;-73.238;2023-04-01T10:10:47;100388.20;;;23.24;37.64
73245;BME280;61460;41.158;-73.238;2023-04-01T10:20:52;100399.02;;;23.41;37.26
73245;BME280;61460;41.158;-73.238;2023-04-01T10:23:20;100390.15;;;23.40;37.33
73245;BME280;61460;41.158;-73.238;2023-04-01T10:33:27;100359.95;;;22.96;37.87
73245;BME280;61460;41.158;-73.238;2023-04-01T10:38:28;100351.43;;;23.09;37.61
73245;BME280;61460;41.158;-73.238;2023-04-01T10:40:53;100359.57;;;23.30;38.16
73245;BME280;61460;41.158;-73.238;2023-04-01T10:51:01;100365.90;;;23.56;37.64
73245;BME280;61460;41.158;-73.238;2023-04-01T10:58:33;100326.75;;;23.30;37.81
73245;BME280;61460;41.158;-73.238;2023-04-01T11:16:04;100278.67;;;23.45;37.27
73245;BME280;61460;41.158;-73.238;2023-04-01T11:26:02;100265.74;;;23.47;37.53
73245;BME280;61460;41.158;-73.238;2023-04-01T11:31:09;100282.01;;;23.50;37.61
73245;BME280;61460;41.158;-73.238;2023-04-01T11:33:33;100283.44;;;23.54;37.72
73245;BME280;61460;41.158;-73.238;2023-04-01T11:36:06;100282.50;;;23.13;37.84
73245;BME280;61460;41.158;-73.238;2023-04-01T11:38:41;100281.78;;;23.21;37.59
73245;BME280;61460;41.158;-73.238;2023-04-01T11:41:09;100279.04;;;23.37;37.50
73245;BME280;61460;41.158;-73.238;2023-04-01T11:43:34;100279.99;;;23.41;37.54
73245;BME280;61460;41.158;-73.238;2023-04-01T11:46:10;100276.79;;;23.45;37.51
73245;BME280;61460;41.158;-73.238;2023-04-01T11:48:37;100269.77;;;23.39;37.46
73245;BME280;61460;41.158;-73.238;2023-04-01T11:51:16;100260.68;;;23.44;37.67
73245;BME280;61460;41.158;-73.238;2023-04-01T11:53:41;100254.00;;;23.44;37.74
73245;BME280;61460;41.158;-73.238;2023-04-01T11:56:13;100263.73;;;23.45;37.71
73245;BME280;61460;41.158;-73.238;2023-04-01T11:58:44;100267.09;;;23.47;37.65
73245;BME280;61460;41.158;-73.238;2023-04-01T12:01:14;100265.01;;;23.42;37.69
73245;BME280;61460;41.158;-73.238;2023-04-01T12:03:51;100256.63;;;23.26;37.81
73245;BME280;61460;41.158;-73.238;2023-04-01T12:06:09;100254.73;;;23.20;37.76
73245;BME280;61460;41.158;-73.238;2023-04-01T12:08:45;100253.11;;;23.31;37.78
73245;BME280;61460;41.158;-73.238;2023-04-01T12:11:14;100249.88;;;23.43;37.69
73245;BME280;61460;41.158;-73.238;2023-04-01T12:13:44;100244.30;;;23.41;37.77
73245;BME280;61460;41.158;-73.238;2023-04-01T12:16:18;100242.37;;;23.45;37.57
73245;BME280;61460;41.158;-73.238;2023-04-01T12:18:42;100237.83;;;23.41;37.90
73245;BME280;61460;41.158;-73.238;2023-04-01T12:21:17;100232.65;;;23.39;37.89
73245;BME280;61460;41.158;-73.238;2023-04-01T12:26:22;100207.66;;;23.45;37.90
73245;BME280;61460;41.158;-73.238;2023-04-01T12:28:49;100193.88;;;23.40;37.97
73245;BME280;61460;41.158;-73.238;2023-04-01T12:31:23;100178.72;;;23.28;37.98
73245;BME280;61460;41.158;-73.238;2023-04-01T12:33:55;100163.20;;;23.14;38.06
73245;BME280;61460;41.158;-73.238;2023-04-01T12:36:20;100156.96;;;23.31;37.92
73245;BME280;61460;41.158;-73.238;2023-04-01T12:38:51;100153.65;;;23.39;37.81
73245;BME280;61460;41.158;-73.238;2023-04-01T12:41:19;100148.56;;;23.46;37.69
73245;BME280;61460;41.158;-73.238;2023-04-01T12:43:55;100134.67;;;23.45;37.84
73245;BME280;61460;41.158;-73.238;2023-04-01T12:46:20;100117.22;;;23.48;37.79
73245;BME280;61460;41.158;-73.238;2023-04-01T12:51:25;100114.94;;;23.50;37.77
73245;BME280;61460;41.158;-73.238;2023-04-01T12:56:26;100109.18;;;23.50;37.71
73245;BME280;61460;41.158;-73.238;2023-04-01T12:59:14;100105.37;;;23.46;37.86
73245;BME280;61460;41.158;-73.238;2023-04-01T13:04:05;100117.06;;;23.42;37.84
73245;BME280;61460;41.158;-73.238;2023-04-01T13:06:28;100103.33;;;23.43;37.87
73245;BME280;61460;41.158;-73.238;2023-04-01T13:08:57;100075.50;;;23.21;38.07
73245;BME280;61460;41.158;-73.238;2023-04-01T13:11:28;100072.63;;;23.28;38.20
73245;BME280;61460;41.158;-73.238;2023-04-01T13:16:25;100097.39;;;23.39;38.02
73245;BME280;61460;41.158;-73.238;2023-04-01T13:18:59;100101.78;;;23.39;38.07
73245;BME280;61460;41.158;-73.238;2023-04-01T13:21:34;100094.69;;;22.61;39.53
73245;BME280;61460;41.158;-73.238;2023-04-01T13:24:01;100084.33;;;22.71;39.38
73245;BME280;61460;41.158;-73.238;2023-04-01T13:26:32;100071.20;;;23.23;38.20
73245;BME280;61460;41.158;-73.238;2023-04-01T13:29:00;100063.88;;;23.35;38.47
73245;BME280;61460;41.158;-73.238;2023-04-01T13:31:38;100055.75;;;23.39;38.23
73245;BME280;61460;41.158;-73.238;2023-04-01T13:34:08;100032.45;;;23.39;38.15
73245;BME280;61460;41.158;-73.238;2023-04-01T13:36:34;100020.44;;;23.39;37.96
73245;BME280;61460;41.158;-73.238;2023-04-01T13:39:11;100011.64;;;23.58;37.69
73245;BME280;61460;41.158;-73.238;2023-04-01T13:41:40;100001.51;;;23.54;38.00
73245;BME280;61460;41.158;-73.238;2023-04-01T13:44:09;99992.09;;;23.61;38.07
73245;BME280;61460;41.158;-73.238;2023-04-01T13:46:43;99991.86;;;23.63;38.35
73245;BME280;61460;41.158;-73.238;2023-04-01T13:56:38;100003.45;;;23.69;38.38
73245;BME280;61460;41.158;-73.238;2023-04-01T14:01:40;100007.82;;;23.63;38.22
73245;BME280;61460;41.158;-73.238;2023-04-01T14:04:16;100006.01;;;23.66;38.10
73245;BME280;61460;41.158;-73.238;2023-04-01T14:06:43;100012.13;;;23.56;38.42
73245;BME280;61460;41.158;-73.238;2023-04-01T14:09:19;100006.52;;;23.54;38.45
73245;BME280;61460;41.158;-73.238;2023-04-01T14:11:41;100006.36;;;23.57;38.46
73245;BME280;61460;41.158;-73.238;2023-04-01T14:14:17;99998.21;;;23.29;38.77
73245;BME280;61460;41.158;-73.238;2023-04-01T14:16:54;99992.29;;;23.32;38.42
73245;BME280;61460;41.158;-73.238;2023-04-01T14:19:21;99990.90;;;23.57;38.11
73245;BME280;61460;41.158;-73.238;2023-04-01T14:21:45;99989.24;;;23.62;37.96
73245;BME280;61460;41.158;-73.238;2023-04-01T14:24:21;99984.81;;;23.59;38.08
73245;BME280;61460;41.158;-73.238;2023-04-01T14:29:21;99978.59;;;23.63;37.87
73245;BME280;61460;41.158;-73.238;2023-04-01T14:31:51;99969.69;;;22.69;39.24
73245;BME280;61460;41.158;-73.238;2023-04-01T14:34:23;99972.27;;;22.92;38.99
73245;BME280;61460;41.158;-73.238;2023-04-01T14:36:55;99971.79;;;23.32;38.10
73245;BME280;61460;41.158;-73.238;2023-04-01T14:39:23;99964.81;;;23.36;37.98